createdAt,value
2018-09-01T00:00:48.897Z,1023.97
2018-09-01T00:01:48.529Z,1023.99
2018-09-01T00:02:48.903Z,1023.92
2018-09-01T00:03:48.731Z,1023.91
2018-09-01T00:04:48.550Z,1023.93
2018-09-01T00:05:48.566Z,1023.96
2018-09-01T00:06:48.559Z,1024
2018-09-01T00:07:48.555Z,1023.98
2018-09-01T00:08:48.597Z,1024.01
2018-09-01T00:09:48.557Z,1023.98
2018-09-01T00:10:48.806Z,1024.01
2018-09-01T00:11:48.603Z,1023.97
2018-09-01T00:12:48.679Z,1023.97
2018-09-01T00:13:48.613Z,1023.96
2018-09-01T00:14:48.549Z,1023.97
2018-09-01T00:15:48.539Z,1023.96
2018-09-01T00:16:48.553Z,1023.92
2018-09-01T00:17:48.541Z,1023.96
2018-09-01T00:18:48.702Z,1023.94
2018-09-01T00:19:48.566Z,1023.93
2018-09-01T00:20:48.559Z,1023.97
2018-09-01T00:21:48.539Z,1023.95
2018-09-01T00:22:48.847Z,1023.98
2018-09-01T00:23:48.566Z,1023.99
2018-09-01T00:24:48.732Z,1024.02
2018-09-01T00:25:48.608Z,1023.99
2018-09-01T00:26:48.626Z,1024
2018-09-01T00:27:48.572Z,1023.99
2018-09-01T00:28:48.836Z,1023.99
2018-09-01T00:29:48.797Z,1023.97
2018-09-01T00:30:49.222Z,1023.99
2018-09-01T00:31:48.628Z,1024.02
2018-09-01T00:32:48.814Z,1023.99
2018-09-01T00:33:48.565Z,1024.03
2018-09-01T00:34:48.771Z,1024.01
2018-09-01T00:35:48.576Z,1024.02
2018-09-01T00:36:48.556Z,1024.03
2018-09-01T00:37:48.748Z,1024.01
2018-09-01T00:38:48.571Z,1023.99
2018-09-01T00:39:48.571Z,1023.98
2018-09-01T00:40:48.612Z,1023.93
2018-09-01T00:41:48.653Z,1023.89
2018-09-01T00:42:48.568Z,1023.88
2018-09-01T00:43:48.687Z,1023.86
2018-09-01T00:44:48.589Z,1023.84
2018-09-01T00:45:48.599Z,1023.84
2018-09-01T00:46:48.580Z,1023.83
2018-09-01T00:47:48.579Z,1023.79
2018-09-01T00:48:48.708Z,1023.85
2018-09-01T00:49:48.616Z,1023.82
2018-09-01T00:50:48.632Z,1023.83
2018-09-01T00:51:48.598Z,1023.82
2018-09-01T00:52:48.698Z,1023.84
2018-09-01T00:53:48.629Z,1023.83
2018-09-01T00:54:48.668Z,1023.83
2018-09-01T00:55:48.603Z,1023.86
2018-09-01T00:56:48.688Z,1023.86
2018-09-01T00:57:48.992Z,1023.91
2018-09-01T00:58:48.719Z,1023.89
2018-09-01T00:59:48.588Z,1023.9
2018-09-01T01:00:49.182Z,1023.98
2018-09-01T01:01:48.930Z,1023.98
2018-09-01T01:02:49.023Z,1024
2018-09-01T01:03:48.599Z,1023.99
2018-09-01T01:04:48.639Z,1023.98
2018-09-01T01:05:48.834Z,1023.98
2018-09-01T01:06:48.691Z,1023.96
2018-09-01T01:07:48.695Z,1024
2018-09-01T01:08:48.691Z,1023.98
2018-09-01T01:09:48.588Z,1024.03
2018-09-01T01:10:48.656Z,1024.06
2018-09-01T01:11:48.615Z,1024.07
2018-09-01T01:12:48.594Z,1024.07
2018-09-01T01:13:48.590Z,1024.11
2018-09-01T01:14:48.682Z,1024.1
2018-09-01T01:15:48.660Z,1024.11
2018-09-01T01:16:48.690Z,1024.15
2018-09-01T01:17:48.701Z,1024.21
2018-09-01T01:18:48.618Z,1024.19
2018-09-01T01:19:48.679Z,1024.19
2018-09-01T01:20:48.656Z,1024.21
2018-09-01T01:21:48.630Z,1024.24
2018-09-01T01:22:48.961Z,1024.27
2018-09-01T01:23:48.616Z,1024.27
2018-09-01T01:24:48.674Z,1024.32
2018-09-01T01:25:48.793Z,1024.32
2018-09-01T01:26:48.681Z,1024.33
2018-09-01T01:27:48.624Z,1024.27
2018-09-01T01:28:48.701Z,1024.3
2018-09-01T01:29:48.640Z,1024.26
2018-09-01T01:30:48.613Z,1024.28
2018-09-01T01:31:48.690Z,1024.26
2018-09-01T01:32:48.686Z,1024.26
2018-09-01T01:33:48.680Z,1024.28
2018-09-01T01:34:48.744Z,1024.24
2018-09-01T01:35:49.048Z,1024.26
2018-09-01T01:36:48.718Z,1024.25
2018-09-01T01:37:48.655Z,1024.28
2018-09-01T01:38:48.765Z,1024.3
2018-09-01T01:39:48.663Z,1024.26
2018-09-01T01:40:48.721Z,1024.25
2018-09-01T01:41:49.198Z,1024.28
2018-09-01T01:42:48.645Z,1024.28
2018-09-01T01:43:48.660Z,1024.33
2018-09-01T01:44:48.693Z,1024.31
2018-09-01T01:45:48.643Z,1024.35
2018-09-01T01:46:48.629Z,1024.37
2018-09-01T01:47:49.030Z,1024.34
2018-09-01T01:48:48.646Z,1024.34
2018-09-01T01:49:48.942Z,1024.28
2018-09-01T01:50:48.964Z,1024.32
2018-09-01T01:51:49.157Z,1024.31
2018-09-01T01:52:48.753Z,1024.31
2018-09-01T01:53:48.650Z,1024.29
2018-09-01T01:54:48.649Z,1024.28
2018-09-01T01:55:48.655Z,1024.27
2018-09-01T01:56:48.670Z,1024.26
2018-09-01T01:57:48.653Z,1024.28
2018-09-01T01:58:48.658Z,1024.33
2018-09-01T01:59:48.645Z,1024.33
2018-09-01T02:00:48.653Z,1024.35
2018-09-01T02:01:48.666Z,1024.37
2018-09-01T02:02:48.733Z,1024.37
2018-09-01T02:03:48.648Z,1024.38
2018-09-01T02:04:48.689Z,1024.36
2018-09-01T02:05:48.713Z,1024.39
2018-09-01T02:06:48.954Z,1024.41
2018-09-01T02:07:49.308Z,1024.45
2018-09-01T02:08:49.075Z,1024.48
2018-09-01T02:09:48.749Z,1024.48
2018-09-01T02:10:48.674Z,1024.5
2018-09-01T02:11:48.681Z,1024.51
2018-09-01T02:12:48.662Z,1024.54
2018-09-01T02:13:48.673Z,1024.56
2018-09-01T02:14:48.712Z,1024.57
2018-09-01T02:15:48.674Z,1024.58
2018-09-01T02:16:48.705Z,1024.56
2018-09-01T02:17:48.753Z,1024.58
2018-09-01T02:18:48.940Z,1024.62
2018-09-01T02:19:48.708Z,1024.6
2018-09-01T02:20:48.682Z,1024.58
2018-09-01T02:21:48.706Z,1024.57
2018-09-01T02:22:48.821Z,1024.55
2018-09-01T02:23:48.691Z,1024.61
2018-09-01T02:24:48.678Z,1024.58
2018-09-01T02:25:48.703Z,1024.58
2018-09-01T02:26:48.787Z,1024.57
2018-09-01T02:27:49.005Z,1024.59
2018-09-01T02:28:48.686Z,1024.57
2018-09-01T02:29:48.810Z,1024.54
2018-09-01T02:30:48.685Z,1024.52
2018-09-01T02:31:48.735Z,1024.55
2018-09-01T02:32:48.820Z,1024.57
2018-09-01T02:33:48.963Z,1024.55
2018-09-01T02:34:48.724Z,1024.56
2018-09-01T02:35:49.070Z,1024.56
2018-09-01T02:36:49.048Z,1024.48
2018-09-01T02:37:48.724Z,1024.57
2018-09-01T02:38:48.713Z,1024.56
2018-09-01T02:39:49.141Z,1024.56
2018-09-01T02:40:48.717Z,1024.57
2018-09-01T02:41:48.882Z,1024.6
2018-09-01T02:42:48.761Z,1024.59
2018-09-01T02:43:48.706Z,1024.57
2018-09-01T02:44:49.026Z,1024.58
2018-09-01T02:45:48.697Z,1024.58
2018-09-01T02:46:49.189Z,1024.59
2018-09-01T02:47:49.069Z,1024.64
2018-09-01T02:48:48.726Z,1024.65
2018-09-01T02:49:48.967Z,1024.63
2018-09-01T02:50:48.712Z,1024.61
2018-09-01T02:51:48.732Z,1024.66
2018-09-01T02:52:48.755Z,1024.7
2018-09-01T02:53:48.845Z,1024.66
2018-09-01T02:54:48.781Z,1024.65
2018-09-01T02:55:48.727Z,1024.68
2018-09-01T02:56:48.893Z,1024.66
2018-09-01T02:57:48.726Z,1024.69
2018-09-01T02:58:48.761Z,1024.7
2018-09-01T02:59:49.077Z,1024.7
2018-09-01T03:00:48.968Z,1024.72
2018-09-01T03:01:48.947Z,1024.75
2018-09-01T03:02:48.730Z,1024.71
2018-09-01T03:03:48.737Z,1024.7
2018-09-01T03:04:48.734Z,1024.72
2018-09-01T03:05:48.916Z,1024.76
2018-09-01T03:06:48.904Z,1024.67
2018-09-01T03:07:48.713Z,1024.7
2018-09-01T03:08:48.728Z,1024.72
2018-09-01T03:09:48.781Z,1024.75
2018-09-01T03:10:48.766Z,1024.73
2018-09-01T03:11:48.768Z,1024.74
2018-09-01T03:12:48.754Z,1024.73
2018-09-01T03:13:48.744Z,1024.7
2018-09-01T03:14:48.754Z,1024.69
2018-09-01T03:15:48.758Z,1024.74
2018-09-01T03:16:48.761Z,1024.69
2018-09-01T03:17:48.758Z,1024.73
2018-09-01T03:18:48.796Z,1024.7
2018-09-01T03:19:48.784Z,1024.72
2018-09-01T03:20:48.758Z,1024.73
2018-09-01T03:21:48.801Z,1024.73
2018-09-01T03:22:48.790Z,1024.72
2018-09-01T03:23:48.762Z,1024.71
2018-09-01T03:24:48.951Z,1024.67
2018-09-01T03:25:48.860Z,1024.71
2018-09-01T03:26:48.772Z,1024.74
2018-09-01T03:27:49.040Z,1024.79
2018-09-01T03:28:49.030Z,1024.71
2018-09-01T03:29:49.032Z,1024.75
2018-09-01T03:30:48.752Z,1024.77
2018-09-01T03:31:48.959Z,1024.75
2018-09-01T03:32:48.804Z,1024.77
2018-09-01T03:33:48.817Z,1024.81
2018-09-01T03:34:48.845Z,1024.84
2018-09-01T03:35:48.966Z,1024.87
2018-09-01T03:36:48.962Z,1024.89
2018-09-01T03:37:48.779Z,1024.86
2018-09-01T03:38:49.094Z,1024.82
2018-09-01T03:39:49.016Z,1024.88
2018-09-01T03:40:48.931Z,1024.83
2018-09-01T03:41:49.309Z,1024.83
2018-09-01T03:42:49.105Z,1024.88
2018-09-01T03:43:48.917Z,1024.9
2018-09-01T03:44:48.788Z,1024.84
2018-09-01T03:45:48.935Z,1024.79
2018-09-01T03:46:49.101Z,1024.84
2018-09-01T03:47:48.801Z,1024.83
2018-09-01T03:48:48.775Z,1024.86
2018-09-01T03:49:48.814Z,1024.81
2018-09-01T03:50:48.972Z,1024.83
2018-09-01T03:51:48.867Z,1024.88
2018-09-01T03:52:48.783Z,1024.81
2018-09-01T03:53:48.785Z,1024.77
2018-09-01T03:54:48.917Z,1024.81
2018-09-01T03:55:48.977Z,1024.82
2018-09-01T03:56:48.807Z,1024.81
2018-09-01T03:57:48.919Z,1024.84
2018-09-01T03:58:49.138Z,1024.82
2018-09-01T03:59:49.069Z,1024.8
2018-09-01T04:00:48.923Z,1024.79
2018-09-01T04:01:48.918Z,1024.85
2018-09-01T04:02:48.801Z,1024.81
2018-09-01T04:03:48.787Z,1024.85
2018-09-01T04:04:48.836Z,1024.8
2018-09-01T04:05:48.948Z,1024.82
2018-09-01T04:06:48.979Z,1024.81
2018-09-01T04:07:48.979Z,1024.8
2018-09-01T04:08:49.093Z,1024.81
2018-09-01T04:09:48.819Z,1024.81
2018-09-01T04:10:49.165Z,1024.83
2018-09-01T04:11:48.976Z,1024.83
2018-09-01T04:12:48.948Z,1024.85
2018-09-01T04:13:48.821Z,1024.86
2018-09-01T04:14:48.950Z,1024.85
2018-09-01T04:15:48.838Z,1024.81
2018-09-01T04:16:48.799Z,1024.86
2018-09-01T04:17:49.017Z,1024.88
2018-09-01T04:18:48.929Z,1024.85
2018-09-01T04:19:48.820Z,1024.86
2018-09-01T04:20:49.025Z,1024.84
2018-09-01T04:21:48.830Z,1024.83
2018-09-01T04:22:48.876Z,1024.81
2018-09-01T04:23:48.818Z,1024.84
2018-09-01T04:24:48.873Z,1024.84
2018-09-01T04:25:48.816Z,1024.82
2018-09-01T04:26:48.835Z,1024.83
2018-09-01T04:27:48.888Z,1024.84
2018-09-01T04:28:48.821Z,1024.85
2018-09-01T04:29:48.842Z,1024.88
2018-09-01T04:30:48.856Z,1024.91
2018-09-01T04:31:48.951Z,1024.91
2018-09-01T04:32:48.851Z,1024.95
2018-09-01T04:33:48.896Z,1024.95
2018-09-01T04:34:48.893Z,1024.92
2018-09-01T04:35:48.842Z,1024.97
2018-09-01T04:36:48.863Z,1024.92
2018-09-01T04:37:48.877Z,1024.92
2018-09-01T04:38:48.835Z,1024.9
2018-09-01T04:39:48.823Z,1024.93
2018-09-01T04:40:48.850Z,1024.89
2018-09-01T04:41:48.941Z,1024.91
2018-09-01T04:42:49.221Z,1024.9
2018-09-01T04:43:48.892Z,1024.88
2018-09-01T04:44:48.828Z,1024.92
2018-09-01T04:45:48.838Z,1024.91
2018-09-01T04:46:48.840Z,1024.93
2018-09-01T04:47:49.186Z,1024.91
2018-09-01T04:48:49.298Z,1024.95
2018-09-01T04:49:48.924Z,1024.96
2018-09-01T04:50:48.930Z,1024.92
2018-09-01T04:51:48.860Z,1024.91
2018-09-01T04:52:48.905Z,1024.95
2018-09-01T04:53:48.823Z,1024.93
2018-09-01T04:54:48.928Z,1024.92
2018-09-01T04:55:48.990Z,1024.94
2018-09-01T04:56:49.034Z,1024.98
2018-09-01T04:57:48.862Z,1024.99
2018-09-01T04:58:48.921Z,1024.96
2018-09-01T04:59:48.933Z,1025
2018-09-01T05:00:48.959Z,1025
2018-09-01T05:01:49.042Z,1025.05
2018-09-01T05:02:49.157Z,1025.07
2018-09-01T05:03:48.956Z,1025.05
2018-09-01T05:04:49.174Z,1025.08
2018-09-01T05:05:48.938Z,1025.1
2018-09-01T05:06:48.865Z,1025.15
2018-09-01T05:07:48.975Z,1025.14
2018-09-01T05:08:48.861Z,1025.1
2018-09-01T05:09:48.944Z,1025.11
2018-09-01T05:10:48.894Z,1025.11
2018-09-01T05:11:49.013Z,1025.13
2018-09-01T05:12:48.921Z,1025.14
2018-09-01T05:13:49.238Z,1025.14
2018-09-01T05:14:48.966Z,1025.1
2018-09-01T05:15:49.544Z,1025.15
2018-09-01T05:16:48.984Z,1025.13
2018-09-01T05:17:49.260Z,1025.16
2018-09-01T05:18:49.001Z,1025.14
2018-09-01T05:19:48.944Z,1025.14
2018-09-01T05:20:48.966Z,1025.16
2018-09-01T05:21:48.963Z,1025.17
2018-09-01T05:22:48.982Z,1025.19
2018-09-01T05:23:49.047Z,1025.21
2018-09-01T05:24:48.968Z,1025.2
2018-09-01T05:25:49.314Z,1025.24
2018-09-01T05:26:49.112Z,1025.23
2018-09-01T05:27:48.909Z,1025.21
2018-09-01T05:28:48.889Z,1025.26
2018-09-01T05:29:48.880Z,1025.28
2018-09-01T05:30:48.902Z,1025.27
2018-09-01T05:31:48.948Z,1025.2
2018-09-01T05:32:49.048Z,1025.24
2018-09-01T05:33:48.954Z,1025.22
2018-09-01T05:34:49.001Z,1025.18
2018-09-01T05:35:48.936Z,1025.18
2018-09-01T05:36:48.972Z,1025.19
2018-09-01T05:37:48.901Z,1025.17
2018-09-01T05:38:48.916Z,1025.2
2018-09-01T05:39:49.017Z,1025.17
2018-09-01T05:40:48.887Z,1025.23
2018-09-01T05:41:48.904Z,1025.27
2018-09-01T05:42:48.903Z,1025.24
2018-09-01T05:43:49.329Z,1025.27
2018-09-01T05:44:48.914Z,1025.25
2018-09-01T05:45:48.891Z,1025.28
2018-09-01T05:46:48.911Z,1025.24
2018-09-01T05:47:48.911Z,1025.27
2018-09-01T05:48:48.903Z,1025.28
2018-09-01T05:49:48.905Z,1025.29
2018-09-01T05:50:49.067Z,1025.28
2018-09-01T05:51:48.992Z,1025.3
2018-09-01T05:52:48.926Z,1025.35
2018-09-01T05:53:48.915Z,1025.39
2018-09-01T05:54:48.896Z,1025.4
2018-09-01T05:55:48.910Z,1025.44
2018-09-01T05:56:48.935Z,1025.46
2018-09-01T05:57:48.934Z,1025.46
2018-09-01T05:58:48.908Z,1025.44
2018-09-01T05:59:48.896Z,1025.44
2018-09-01T06:00:49.075Z,1025.39
2018-09-01T06:01:48.944Z,1025.38
2018-09-01T06:02:48.945Z,1025.39
2018-09-01T06:03:49.029Z,1025.48
2018-09-01T06:04:48.965Z,1025.45
2018-09-01T06:05:49.073Z,1025.42
2018-09-01T06:06:49.300Z,1025.48
2018-09-01T06:07:48.950Z,1025.41
2018-09-01T06:08:48.914Z,1025.47
2018-09-01T06:09:49.211Z,1025.47
2018-09-01T06:10:49.024Z,1025.47
2018-09-01T06:11:48.976Z,1025.49
2018-09-01T06:12:49.006Z,1025.47
2018-09-01T06:13:48.920Z,1025.48
2018-09-01T06:14:48.959Z,1025.52
2018-09-01T06:15:49.207Z,1025.55
2018-09-01T06:16:48.923Z,1025.52
2018-09-01T06:17:49.086Z,1025.52
2018-09-01T06:18:48.974Z,1025.55
2018-09-01T06:19:48.966Z,1025.56
2018-09-01T06:20:48.927Z,1025.54
2018-09-01T06:21:48.944Z,1025.56
2018-09-01T06:22:48.981Z,1025.54
2018-09-01T06:23:49.092Z,1025.57
2018-09-01T06:24:49.332Z,1025.57
2018-09-01T06:25:48.954Z,1025.57
2018-09-01T06:26:48.983Z,1025.6
2018-09-01T06:27:48.954Z,1025.56
2018-09-01T06:28:48.950Z,1025.6
2018-09-01T06:29:49.082Z,1025.59
2018-09-01T06:30:48.977Z,1025.61
2018-09-01T06:31:48.955Z,1025.55
2018-09-01T06:32:49.318Z,1025.56
2018-09-01T06:33:48.944Z,1025.52
2018-09-01T06:34:49.319Z,1025.51
2018-09-01T06:35:48.977Z,1025.49
2018-09-01T06:36:48.945Z,1025.51
2018-09-01T06:37:48.942Z,1025.48
2018-09-01T06:38:48.940Z,1025.47
2018-09-01T06:39:48.997Z,1025.48
2018-09-01T06:40:48.977Z,1025.47
2018-09-01T06:41:49.332Z,1025.43
2018-09-01T06:42:49.094Z,1025.44
2018-09-01T06:43:48.959Z,1025.47
2018-09-01T06:44:48.957Z,1025.47
2018-09-01T06:45:49.063Z,1025.52
2018-09-01T06:46:48.970Z,1025.53
2018-09-01T06:47:49.198Z,1025.51
2018-09-01T06:48:48.964Z,1025.55
2018-09-01T06:49:49.694Z,1025.57
2018-09-01T06:50:49.037Z,1025.61
2018-09-01T06:51:48.957Z,1025.58
2018-09-01T06:52:48.983Z,1025.62
2018-09-01T06:53:48.970Z,1025.59
2018-09-01T06:54:49.075Z,1025.6
2018-09-01T06:55:48.963Z,1025.54
2018-09-01T06:56:49.212Z,1025.61
2018-09-01T06:57:49.027Z,1025.62
2018-09-01T06:58:48.989Z,1025.7
2018-09-01T06:59:48.989Z,1025.68
2018-09-01T07:00:49.147Z,1025.77
2018-09-01T07:01:48.989Z,1025.75
2018-09-01T07:02:48.977Z,1025.77
2018-09-01T07:03:49.033Z,1025.76
2018-09-01T07:04:49.093Z,1025.78
2018-09-01T07:05:49.029Z,1025.75
2018-09-01T07:06:49.007Z,1025.71
2018-09-01T07:07:49.023Z,1025.75
2018-09-01T07:08:49.334Z,1025.76
2018-09-01T07:09:49.002Z,1025.76
2018-09-01T07:10:49.007Z,1025.79
2018-09-01T07:11:48.991Z,1025.77
2018-09-01T07:12:48.982Z,1025.8
2018-09-01T07:13:49.122Z,1025.79
2018-09-01T07:14:49.017Z,1025.81
2018-09-01T07:15:49.290Z,1025.83
2018-09-01T07:16:49.011Z,1025.83
2018-09-01T07:17:49.051Z,1025.82
2018-09-01T07:18:49.012Z,1025.82
2018-09-01T07:19:49.063Z,1025.79
2018-09-01T07:20:48.995Z,1025.74
2018-09-01T07:21:49.179Z,1025.77
2018-09-01T07:22:49.317Z,1025.75
2018-09-01T07:23:49.250Z,1025.78
2018-09-01T07:24:49.037Z,1025.75
2018-09-01T07:25:49.215Z,1025.76
2018-09-01T07:26:49.006Z,1025.82
2018-09-01T07:27:49.023Z,1025.8
2018-09-01T07:28:49.071Z,1025.85
2018-09-01T07:29:49.162Z,1025.85
2018-09-01T07:30:49.874Z,1025.91
2018-09-01T07:31:49.051Z,1025.9
2018-09-01T07:32:49.246Z,1025.91
2018-09-01T07:33:49.087Z,1025.87
2018-09-01T07:34:49.003Z,1025.86
2018-09-01T07:35:49.104Z,1025.86
2018-09-01T07:36:49.342Z,1025.85
2018-09-01T07:37:49.227Z,1025.86
2018-09-01T07:38:49.072Z,1025.89
2018-09-01T07:39:49.067Z,1025.85
2018-09-01T07:40:49.025Z,1025.86
2018-09-01T07:41:49.086Z,1025.89
2018-09-01T07:42:49.763Z,1025.87
2018-09-01T07:43:49.450Z,1025.91
2018-09-01T07:44:49.165Z,1025.87
2018-09-01T07:45:49.394Z,1025.9
2018-09-01T07:46:49.019Z,1025.92
2018-09-01T07:47:49.185Z,1025.9
2018-09-01T07:48:49.161Z,1025.91
2018-09-01T07:49:49.198Z,1025.88
2018-09-01T07:50:49.503Z,1025.91
2018-09-01T07:51:49.023Z,1025.87
2018-09-01T07:52:49.129Z,1025.94
2018-09-01T07:53:49.059Z,1025.91
2018-09-01T07:54:49.237Z,1025.94
2018-09-01T07:55:49.136Z,1025.95
2018-09-01T07:56:49.222Z,1025.97
2018-09-01T07:57:49.087Z,1025.99
2018-09-01T07:58:49.068Z,1026.04
2018-09-01T07:59:49.048Z,1026.05
2018-09-01T08:00:49.126Z,1026.06
2018-09-01T08:01:49.093Z,1026.08
2018-09-01T08:02:49.588Z,1026.06
2018-09-01T08:03:49.102Z,1026.09
2018-09-01T08:04:49.046Z,1026.09
2018-09-01T08:05:49.175Z,1026.06
2018-09-01T08:06:49.224Z,1026.11
2018-09-01T08:07:49.104Z,1026.14
2018-09-01T08:08:49.051Z,1026.15
2018-09-01T08:09:49.192Z,1026.2
2018-09-01T08:10:49.049Z,1026.14
2018-09-01T08:11:49.066Z,1026.19
2018-09-01T08:12:49.051Z,1026.2
2018-09-01T08:13:49.196Z,1026.15
2018-09-01T08:14:49.174Z,1026.12
2018-09-01T08:15:49.528Z,1026.17
2018-09-01T08:16:49.152Z,1026.13
2018-09-01T08:17:49.168Z,1026.16
2018-09-01T08:18:49.171Z,1026.2
2018-09-01T08:19:49.073Z,1026.15
2018-09-01T08:20:49.061Z,1026.19
2018-09-01T08:21:49.079Z,1026.18
2018-09-01T08:22:49.086Z,1026.18
2018-09-01T08:23:49.116Z,1026.2
2018-09-01T08:24:49.097Z,1026.23
2018-09-01T08:25:49.186Z,1026.22
2018-09-01T08:26:49.116Z,1026.29
2018-09-01T08:27:49.118Z,1026.28
2018-09-01T08:28:49.082Z,1026.28
2018-09-01T08:29:49.131Z,1026.29
2018-09-01T08:30:49.232Z,1026.33
2018-09-01T08:31:49.155Z,1026.35
2018-09-01T08:32:49.119Z,1026.35
2018-09-01T08:33:49.275Z,1026.36
2018-09-01T08:34:49.169Z,1026.39
2018-09-01T08:35:49.092Z,1026.37
2018-09-01T08:36:50.044Z,1026.37
2018-09-01T08:37:49.076Z,1026.41
2018-09-01T08:38:49.081Z,1026.41
2018-09-01T08:39:49.106Z,1026.45
2018-09-01T08:40:49.449Z,1026.43
2018-09-01T08:41:49.143Z,1026.43
2018-09-01T08:42:49.259Z,1026.42
2018-09-01T08:43:49.120Z,1026.4
2018-09-01T08:44:49.474Z,1026.45
2018-09-01T08:45:49.799Z,1026.45
2018-09-01T08:46:49.327Z,1026.47
2018-09-01T08:47:49.095Z,1026.47
2018-09-01T08:48:49.111Z,1026.46
2018-09-01T08:49:49.341Z,1026.47
2018-09-01T08:50:49.217Z,1026.45
2018-09-01T08:51:49.223Z,1026.47
2018-09-01T08:52:49.298Z,1026.43
2018-09-01T08:53:49.090Z,1026.43
2018-09-01T08:54:49.375Z,1026.47
2018-09-01T08:55:49.316Z,1026.4
2018-09-01T08:56:49.141Z,1026.39
2018-09-01T08:57:49.173Z,1026.39
2018-09-01T08:58:49.124Z,1026.36
2018-09-01T08:59:49.123Z,1026.35
2018-09-01T09:00:49.294Z,1026.36
2018-09-01T09:01:49.138Z,1026.34
2018-09-01T09:02:49.179Z,1026.34
2018-09-01T09:03:49.136Z,1026.31
2018-09-01T09:04:49.328Z,1026.29
2018-09-01T09:05:49.123Z,1026.29
2018-09-01T09:06:49.157Z,1026.3
2018-09-01T09:07:49.113Z,1026.28
2018-09-01T09:08:49.185Z,1026.28
2018-09-01T09:09:49.222Z,1026.28
2018-09-01T09:10:49.122Z,1026.31
2018-09-01T09:11:49.150Z,1026.28
2018-09-01T09:12:49.151Z,1026.22
2018-09-01T09:13:50.007Z,1026.24
2018-09-01T09:14:49.481Z,1026.22
2018-09-01T09:15:49.149Z,1026.2
2018-09-01T09:16:49.138Z,1026.2
2018-09-01T09:17:49.138Z,1026.18
2018-09-01T09:18:49.512Z,1026.19
2018-09-01T09:19:49.110Z,1026.17
2018-09-01T09:20:49.186Z,1026.2
2018-09-01T09:21:49.287Z,1026.21
2018-09-01T09:22:49.155Z,1026.21
2018-09-01T09:23:49.166Z,1026.17
2018-09-01T09:24:49.251Z,1026.13
2018-09-01T09:25:49.201Z,1026.15
2018-09-01T09:26:49.161Z,1026.14
2018-09-01T09:27:49.132Z,1026.14
2018-09-01T09:28:49.261Z,1026.14
2018-09-01T09:29:49.132Z,1026.14
2018-09-01T09:30:49.164Z,1026.16
2018-09-01T09:31:49.609Z,1026.14
2018-09-01T09:32:49.157Z,1026.14
2018-09-01T09:33:49.162Z,1026.11
2018-09-01T09:34:49.145Z,1026.13
2018-09-01T09:35:49.209Z,1026.1
2018-09-01T09:36:49.273Z,1026.09
2018-09-01T09:37:49.141Z,1026.07
2018-09-01T09:38:49.137Z,1026.08
2018-09-01T09:39:49.244Z,1026.07
2018-09-01T09:40:49.255Z,1026.09
2018-09-01T09:41:49.317Z,1026.11
2018-09-01T09:42:49.169Z,1026.08
2018-09-01T09:43:49.176Z,1026.11
2018-09-01T09:44:49.184Z,1026.1
2018-09-01T09:45:49.181Z,1026.11
2018-09-01T09:46:49.189Z,1026.12
2018-09-01T09:47:49.173Z,1026.09
2018-09-01T09:48:49.201Z,1026.09
2018-09-01T09:49:49.513Z,1026.1
2018-09-01T09:50:49.163Z,1026.11
2018-09-01T09:51:49.255Z,1026.09
2018-09-01T09:52:49.242Z,1026.06
2018-09-01T09:53:49.222Z,1026.1
2018-09-01T09:54:49.193Z,1026.02
2018-09-01T09:55:49.263Z,1026.03
2018-09-01T09:56:49.197Z,1026.03
2018-09-01T09:57:49.477Z,1026.04
2018-09-01T09:58:49.171Z,1026.03
2018-09-01T09:59:49.188Z,1026.03
2018-09-01T10:00:49.262Z,1026.03
2018-09-01T10:01:49.609Z,1026.03
2018-09-01T10:02:50.078Z,1026.01
2018-09-01T10:03:49.336Z,1025.98
2018-09-01T10:04:49.379Z,1025.94
2018-09-01T10:05:49.363Z,1025.98
2018-09-01T10:06:49.224Z,1025.95
2018-09-01T10:07:49.239Z,1026
2018-09-01T10:08:49.248Z,1025.99
2018-09-01T10:09:49.216Z,1025.99
2018-09-01T10:10:49.237Z,1025.95
2018-09-01T10:11:49.227Z,1026.01
2018-09-01T10:12:49.428Z,1025.98
2018-09-01T10:13:49.291Z,1025.98
2018-09-01T10:14:49.229Z,1025.97
2018-09-01T10:15:49.426Z,1025.96
2018-09-01T10:16:49.648Z,1025.96
2018-09-01T10:17:49.327Z,1025.94
2018-09-01T10:18:49.242Z,1025.93
2018-09-01T10:19:49.222Z,1025.92
2018-09-01T10:20:49.224Z,1025.96
2018-09-01T10:21:49.804Z,1025.96
2018-09-01T10:22:49.614Z,1025.92
2018-09-01T10:23:49.496Z,1025.87
2018-09-01T10:24:49.250Z,1025.93
2018-09-01T10:25:49.211Z,1025.88
2018-09-01T10:26:49.581Z,1025.93
2018-09-01T10:27:49.200Z,1025.93
2018-09-01T10:28:49.219Z,1025.88
2018-09-01T10:29:49.798Z,1025.86
2018-09-01T10:30:49.492Z,1025.86
2018-09-01T10:31:49.552Z,1025.79
2018-09-01T10:32:49.359Z,1025.78
2018-09-01T10:33:49.258Z,1025.79
2018-09-01T10:34:49.256Z,1025.76
2018-09-01T10:35:49.261Z,1025.76
2018-09-01T10:36:49.218Z,1025.75
2018-09-01T10:37:49.261Z,1025.71
2018-09-01T10:38:49.283Z,1025.71
2018-09-01T10:39:49.225Z,1025.69
2018-09-01T10:40:49.248Z,1025.68
2018-09-01T10:41:49.242Z,1025.7
2018-09-01T10:42:49.224Z,1025.66
2018-09-01T10:43:49.230Z,1025.58
2018-09-01T10:44:49.689Z,1025.58
2018-09-01T10:45:49.244Z,1025.57
2018-09-01T10:46:49.455Z,1025.62
2018-09-01T10:47:49.309Z,1025.6
2018-09-01T10:48:49.509Z,1025.63
2018-09-01T10:49:49.376Z,1025.61
2018-09-01T10:50:49.517Z,1025.59
2018-09-01T10:51:49.238Z,1025.56
2018-09-01T10:52:49.538Z,1025.56
2018-09-01T10:53:49.751Z,1025.54
2018-09-01T10:54:49.450Z,1025.52
2018-09-01T10:55:49.276Z,1025.48
2018-09-01T10:56:49.405Z,1025.51
2018-09-01T10:57:49.244Z,1025.48
2018-09-01T10:58:49.342Z,1025.46
2018-09-01T10:59:49.412Z,1025.42
2018-09-01T11:00:49.247Z,1025.45
2018-09-01T11:01:49.293Z,1025.44
2018-09-01T11:02:49.391Z,1025.42
2018-09-01T11:03:49.291Z,1025.43
2018-09-01T11:04:49.307Z,1025.44
2018-09-01T11:05:49.282Z,1025.43
2018-09-01T11:06:49.262Z,1025.47
2018-09-01T11:07:49.247Z,1025.46
2018-09-01T11:08:49.258Z,1025.44
2018-09-01T11:09:49.761Z,1025.47
2018-09-01T11:10:49.305Z,1025.47
2018-09-01T11:11:49.382Z,1025.47
2018-09-01T11:12:49.276Z,1025.44
2018-09-01T11:13:49.293Z,1025.42
2018-09-01T11:14:49.311Z,1025.43
2018-09-01T11:15:49.290Z,1025.43
2018-09-01T11:16:49.298Z,1025.44
2018-09-01T11:17:49.283Z,1025.43
2018-09-01T11:18:49.255Z,1025.4
2018-09-01T11:19:49.304Z,1025.4
2018-09-01T11:20:49.390Z,1025.41
2018-09-01T11:21:50.096Z,1025.4
2018-09-01T11:22:49.333Z,1025.36
2018-09-01T11:23:49.265Z,1025.37
2018-09-01T11:24:49.343Z,1025.35
2018-09-01T11:25:49.293Z,1025.33
2018-09-01T11:26:49.302Z,1025.31
2018-09-01T11:27:49.441Z,1025.28
2018-09-01T11:28:49.336Z,1025.31
2018-09-01T11:29:49.386Z,1025.27
2018-09-01T11:30:49.487Z,1025.29
2018-09-01T11:31:50.015Z,1025.3
2018-09-01T11:32:49.405Z,1025.27
2018-09-01T11:33:49.621Z,1025.31
2018-09-01T11:34:49.411Z,1025.33
2018-09-01T11:35:49.300Z,1025.29
2018-09-01T11:36:49.407Z,1025.29
2018-09-01T11:37:50.462Z,1025.26
2018-09-01T11:38:49.305Z,1025.25
2018-09-01T11:39:49.454Z,1025.26
2018-09-01T11:40:49.460Z,1025.29
2018-09-01T11:41:49.283Z,1025.3
2018-09-01T11:42:49.692Z,1025.26
2018-09-01T11:43:49.428Z,1025.26
2018-09-01T11:44:49.508Z,1025.29
2018-09-01T11:45:49.489Z,1025.27
2018-09-01T11:46:49.514Z,1025.23
2018-09-01T11:47:49.463Z,1025.2
2018-09-01T11:48:49.444Z,1025.21
2018-09-01T11:49:49.343Z,1025.18
2018-09-01T11:50:49.461Z,1025.22
2018-09-01T11:51:49.458Z,1025.15
2018-09-01T11:52:49.360Z,1025.17
2018-09-01T11:53:49.354Z,1025.15
2018-09-01T11:54:49.347Z,1025.17
2018-09-01T11:55:49.894Z,1025.23
2018-09-01T11:56:49.376Z,1025.16
2018-09-01T11:57:49.385Z,1025.11
2018-09-01T11:58:49.743Z,1025.24
2018-09-01T11:59:49.398Z,1025.26
2018-09-01T12:00:49.494Z,1025.28
2018-09-01T12:01:49.623Z,1025.29
2018-09-01T12:02:49.404Z,1025.27
2018-09-01T12:03:49.580Z,1025.28
2018-09-01T12:04:49.440Z,1025.35
2018-09-01T12:05:49.382Z,1025.35
2018-09-01T12:06:49.788Z,1025.44
2018-09-01T12:07:49.641Z,1025.4
2018-09-01T12:08:49.444Z,1025.42